Time;durP1;ratioP1;P1;durP2;ratioP2;P2;SDS_P1;SDS_P2;PMS_P1;PMS_P2;Temp;Humidity;BMP_temperature;BMP_pressure;BME280_temperature;BME280_humidity;BME280_pressure;Samples;Min_cycle;Max_cycle;Signal;HPM_P1;HPM_P2
2022/01/17 00:02:22;;;;;;;22.08;11.35;;;;;;;13.38;37.22;103621.63;5055692;28;20528;-70
2022/01/17 00:04:48;;;;;;;20.75;10.85;;;;;;;13.25;37.32;103606.41;5055352;28;20029;-69
2022/01/17 00:07:15;;;;;;;20.30;11.77;;;;;;;13.26;37.41;103606.13;5054053;28;20467;-70
2022/01/17 00:09:41;;;;;;;21.17;10.35;;;;;;;13.32;37.27;103615.25;5054006;28;20029;-70
2022/01/17 00:12:07;;;;;;;16.67;10.10;;;;;;;13.35;37.37;103624.88;5055463;28;20498;-71
2022/01/17 00:14:39;;;;;;;19.77;10.40;;;;;;;13.35;37.40;103617.47;5055314;28;20020;-70
2022/01/17 00:19:46;;;;;;;17.92;10.38;;;;;;;13.21;37.51;103608.81;5053257;28;20552;-69
2022/01/17 00:22:13;;;;;;;18.55;10.95;;;;;;;13.26;37.56;103610.81;5055280;28;20051;-70
2022/01/17 00:24:39;;;;;;;15.70;9.57;;;;;;;13.28;37.55;103622.34;5053606;28;20028;-70
2022/01/17 00:27:05;;;;;;;19.73;9.95;;;;;;;13.28;37.33;103623.16;5038821;28;20041;-70
2022/01/17 00:29:32;;;;;;;18.27;11.00;;;;;;;13.01;37.98;103612.19;5039476;28;20079;-70
2022/01/17 00:31:58;;;;;;;19.38;10.55;;;;;;;13.12;37.56;103612.28;5041735;28;20426;-70
2022/01/17 00:34:24;;;;;;;23.13;10.73;;;;;;;13.13;37.69;103622.19;5038772;28;20017;-70
2022/01/17 00:36:50;;;;;;;19.35;10.02;;;;;;;13.18;37.72;103633.22;5038400;28;20029;-70
2022/01/17 00:39:17;;;;;;;17.17;10.93;;;;;;;13.19;37.58;103627.47;5038439;28;20049;-70
2022/01/17 00:41:43;;;;;;;20.60;11.43;;;;;;;12.90;38.11;103620.59;5042285;28;20020;-69
2022/01/17 00:44:08;;;;;;;18.10;11.10;;;;;;;12.88;38.06;103620.84;5054682;28;20025;-69
2022/01/17 00:46:34;;;;;;;22.35;11.75;;;;;;;12.98;37.95;103629.16;5054595;28;20029;-69
2022/01/17 00:49:00;;;;;;;16.92;10.02;;;;;;;12.98;38.24;103633.84;5054429;28;20118;-69
2022/01/17 00:51:26;;;;;;;18.77;9.80;;;;;;;13.07;37.80;103646.00;5054440;28;20116;-69
2022/01/17 00:53:52;;;;;;;17.70;9.65;;;;;;;13.08;37.84;103641.38;5054768;28;20021;-70
2022/01/17 00:56:22;;;;;;;22.42;9.13;;;;;;;12.64;38.95;103627.72;5054330;28;20032;-69
2022/01/17 00:58:48;;;;;;;;;;;;;;;12.95;38.26;103623.38;5055119;28;20029;-70
2022/01/17 01:01:14;;;;;;;13.50;7.70;;;;;;;13.05;38.09;103637.19;5054316;28;19916;-70
2022/01/17 01:03:39;;;;;;;18.00;8.60;;;;;;;13.12;38.04;103642.50;5054305;28;20029;-69
2022/01/17 01:06:05;;;;;;;15.15;7.75;;;;;;;13.06;38.21;103636.09;5054254;28;20028;-70
2022/01/17 01:08:31;;;;;;;14.38;8.38;;;;;;;13.17;38.21;103637.88;5054412;28;20482;-69
2022/01/17 01:10:57;;;;;;;15.13;9.15;;;;;;;13.18;37.87;103631.28;5054391;28;20033;-69
2022/01/17 01:13:24;;;;;;;17.40;8.40;;;;;;;13.18;37.92;103631.28;5054425;28;20348;-70
2022/01/17 01:18:39;;;;;;;18.23;8.23;;;;;;;12.94;38.49;103635.47;5054412;28;20483;-70
2022/01/17 01:29:00;;;;;;;11.70;7.38;;;;;;;12.77;38.63;103644.63;5053698;28;20465;-69
2022/01/17 01:31:52;;;;;;;18.90;7.80;;;;;;;12.94;38.25;103649.19;5054000;28;20029;-70
2022/01/17 01:34:13;;;;;;;13.23;7.07;;;;;;;13.00;38.21;103637.16;5052900;28;20040;-70
2022/01/17 01:36:39;;;;;;;18.95;8.18;;;;;;;12.93;38.36;103633.81;5053559;28;20555;-70
2022/01/17 01:39:06;;;;;;;18.08;8.85;;;;;;;12.80;38.71;103645.19;5053943;28;20411;-69
2022/01/17 01:41:43;;;;;;;14.73;7.28;;;;;;;12.85;38.69;103648.81;5053590;28;20025;-69
2022/01/17 01:44:16;;;;;;;15.20;6.97;;;;;;;12.77;38.73;103644.63;5038961;28;20025;-70
2022/01/17 01:46:43;;;;;;;13.80;6.93;;;;;;;12.85;38.40;103639.75;5037016;28;20080;-70
2022/01/17 01:49:10;;;;;;;14.02;7.55;;;;;;;12.76;38.49;103634.69;5036622;28;20029;-70
2022/01/17 01:51:35;;;;;;;17.08;7.60;;;;;;;12.87;38.41;103654.03;5036881;28;20116;-70
2022/01/17 01:54:01;;;;;;;12.10;7.03;;;;;;;12.88;38.31;103650.19;5037306;28;20111;-70
2022/01/17 01:56:27;;;;;;;15.00;8.50;;;;;;;12.88;38.37;103639.22;5023464;28;20071;-71
2022/01/17 01:58:52;;;;;;;18.77;7.72;;;;;;;12.73;38.55;103627.00;5036819;28;20647;-70
2022/01/17 02:01:18;;;;;;;17.23;7.47;;;;;;;12.77;38.48;103630.91;5022295;28;20039;-70
2022/01/17 02:03:43;;;;;;;20.08;8.40;;;;;;;12.80;38.25;103634.19;5037671;28;20039;-70
2022/01/17 02:06:09;;;;;;;16.00;8.27;;;;;;;12.82;38.46;103638.34;5036354;28;20115;-70
2022/01/17 02:08:35;;;;;;;11.50;6.85;;;;;;;12.81;38.43;103635.84;5037146;28;20021;-70
2022/01/17 02:11:00;;;;;;;19.40;7.57;;;;;;;12.64;38.80;103628.53;5036793;28;20415;-70
2022/01/17 02:13:27;;;;;;;13.38;7.80;;;;;;;12.73;38.34;103627.00;5049434;28;20032;-69
2022/01/17 02:16:04;;;;;;;15.38;7.43;;;;;;;12.77;38.52;103630.91;5052863;28;20098;-69
2022/01/17 02:18:31;;;;;;;19.52;8.65;;;;;;;12.74;38.39;103617.69;5052917;28;20029;-69
2022/01/17 02:23:56;;;;;;;18.48;7.75;;;;;;;12.65;38.62;103615.66;5035343;28;20029;-70
2022/01/17 02:26:22;;;;;;;18.92;8.43;;;;;;;12.71;38.39;103622.88;5363078;22;20059;-69
2022/01/17 02:28:50;;;;;;;13.10;7.20;;;;;;;12.69;38.34;103631.31;5065030;28;20028;-70
2022/01/17 02:31:17;;;;;;;11.60;7.10;;;;;;;12.66;38.42;103634.59;5072436;28;20055;-69
2022/01/17 02:33:43;;;;;;;14.23;8.02;;;;;;;12.64;38.40;103636.78;5062045;28;20517;-70
2022/01/17 02:36:09;;;;;;;18.23;7.75;;;;;;;12.64;38.40;103635.94;5056502;28;20025;-70
2022/01/17 02:38:35;;;;;;;17.75;7.70;;;;;;;12.70;38.30;103638.50;5056713;28;20023;-70
2022/01/17 02:41:01;;;;;;;20.00;8.73;;;;;;;12.66;38.26;103637.34;5055104;28;20028;-70
2022/01/17 02:43:27;;;;;;;17.23;8.35;;;;;;;12.69;38.51;103660.69;5056448;28;20024;-70
2022/01/17 02:48:21;;;;;;;12.07;6.80;;;;;;;12.61;38.46;103655.63;5057033;28;20559;-70
2022/01/17 02:50:47;;;;;;;16.50;8.32;;;;;;;12.58;38.55;103661.66;5058412;28;20975;-69
2022/01/17 02:53:13;;;;;;;17.35;8.52;;;;;;;12.59;38.40;103666.88;5070863;28;20032;-70
2022/01/17 02:55:48;;;;;;;16.40;8.20;;;;;;;12.62;38.37;103666.38;5064700;28;20055;-69
2022/01/17 02:58:14;;;;;;;22.67;9.73;;;;;;;12.41;39.12;103657.06;5072499;28;20467;-69
2022/01/17 03:00:40;;;;;;;14.05;7.93;;;;;;;12.21;39.07;103668.56;5062183;28;20060;-70
2022/01/17 03:03:09;;;;;;;19.25;8.13;;;;;;;12.37;38.96;103664.13;5056551;28;20024;-70
2022/01/17 03:05:35;;;;;;;18.70;8.05;;;;;;;12.12;39.65;103661.03;5057046;28;20052;-69
2022/01/17 03:08:03;;;;;;;20.10;9.15;;;;;;;12.00;39.79;103663.06;5072617;28;20024;-78
2022/01/17 03:10:39;;;;;;;13.90;7.57;;;;;;;11.89;39.86;103654.69;5071690;28;20466;-70
2022/01/17 03:13:12;;;;;;;13.02;7.32;;;;;;;11.64;40.42;103652.34;5061446;28;20055;-69
2022/01/17 03:15:42;;;;;;;13.23;7.93;;;;;;;11.73;40.19;103657.41;5072319;28;20036;-70
2022/01/17 03:18:08;;;;;;;18.23;8.43;;;;;;;11.74;40.09;103656.34;5072229;28;20056;-69
2022/01/17 03:20:35;;;;;;;14.65;9.10;;;;;;;11.62;40.47;103646.28;5072266;28;20024;-69
2022/01/17 03:23:01;;;;;;;22.00;8.77;;;;;;;11.69;40.35;103646.13;5072272;28;20098;-69
2022/01/17 03:25:27;;;;;;;13.45;7.20;;;;;;;11.66;40.37;103647.44;5071992;28;20052;-70
2022/01/17 07:35:07;;;;;;;18.67;9.77;;;;;;;10.36;42.89;103733.06;5641349;23;20419;-70
2022/01/17 07:37:33;;;;;;;17.83;9.90;;;;;;;10.24;43.36;103741.25;4991603;28;20038;-70
2022/01/17 07:39:59;;;;;;;21.10;11.57;;;;;;;10.17;43.60;103731.47;4997056;28;20029;-70
2022/01/17 07:42:24;;;;;;;17.03;9.87;;;;;;;10.32;43.13;103734.59;4998637;28;20029;-73
2022/01/17 07:44:54;;;;;;;16.97;10.33;;;;;;;10.27;43.19;103739.91;4998536;28;20656;-70
2022/01/17 07:47:27;;;;;;;;;;;;;;;10.12;43.57;103753.19;4990108;28;20041;-69
2022/01/17 07:49:53;;;;;;;25.33;14.07;;;;;;;10.28;43.16;103758.00;4998698;28;19920;-71
2022/01/17 07:52:19;;;;;;;21.30;10.98;;;;;;;10.27;43.13;103726.25;5003091;28;20014;-68
2022/01/17 07:54:47;;;;;;;18.58;11.88;;;;;;;10.21;43.21;103721.75;5016025;28;20018;-67
2022/01/17 07:57:14;;;;;;;22.57;12.93;;;;;;;10.24;43.26;103726.75;5016093;28;20030;-67
2022/01/17 07:59:40;;;;;;;23.70;12.15;;;;;;;10.04;43.71;103716.13;5015836;28;20080;-78
2022/01/17 08:02:05;;;;;;;21.38;12.43;;;;;;;10.06;43.53;103735.88;5015909;28;20021;-67
2022/01/17 08:04:31;;;;;;;21.43;11.40;;;;;;;10.20;43.40;103739.19;5015794;28;20033;-70
2022/01/17 08:06:57;;;;;;;21.92;11.77;;;;;;;10.19;43.30;103732.06;5015719;28;20084;-67
2022/01/17 08:09:30;;;;;;;16.23;11.18;;;;;;;9.93;43.80;103733.34;5015625;28;20506;-69
2022/01/17 08:11:57;;;;;;;26.53;14.50;;;;;;;10.18;43.14;103733.13;4999234;28;20072;-78
2022/01/17 08:14:24;;;;;;;19.02;11.23;;;;;;;10.25;43.12;103728.41;4995408;28;20427;-69
2022/01/17 08:16:51;;;;;;;19.98;11.65;;;;;;;10.19;43.10;103730.16;4995086;28;20038;-77
2022/01/17 08:19:17;;;;;;;24.60;12.73;;;;;;;10.14;43.39;103737.41;4996132;28;20101;-71
2022/01/17 08:21:44;;;;;;;18.27;11.45;;;;;;;10.13;43.34;103743.94;4983737;28;20030;-72
2022/01/17 08:24:09;;;;;;;20.27;11.40;;;;;;;10.11;43.33;103737.88;4991200;28;20044;-73
2022/01/17 08:26:42;;;;;;;19.23;11.15;;;;;;;10.08;43.40;103732.91;4984863;28;20030;-78
2022/01/17 08:29:08;;;;;;;17.95;11.63;;;;;;;10.17;43.26;103745.13;4977905;28;20096;-71
2022/01/17 08:31:34;;;;;;;24.73;11.35;;;;;;;10.12;43.18;103734.06;4976778;28;20567;-71
2022/01/17 08:33:59;;;;;;;27.58;11.23;;;;;;;10.15;43.08;103723.50;4977717;28;20054;-71
2022/01/17 08:36:25;;;;;;;17.02;11.98;;;;;;;10.16;43.11;103732.53;4977615;28;21034;-71
2022/01/17 08:38:50;;;;;;;24.38;12.75;;;;;;;10.25;42.97;103758.47;4976656;28;20058;-71
2022/01/17 08:41:18;;;;;;;23.40;12.05;;;;;;;10.13;43.26;103755.72;4977644;28;20068;-71
2022/01/17 08:43:43;;;;;;;22.00;11.07;;;;;;;10.23;42.98;103763.34;5005971;28;20029;-71
2022/01/17 08:46:09;;;;;;;23.52;12.32;;;;;;;10.22;42.90;103770.72;4999446;28;20387;-75
2022/01/17 08:48:35;;;;;;;28.73;10.80;;;;;;;10.05;43.23;103763.41;4996482;28;20038;-71
2022/01/17 08:51:01;;;;;;;17.02;11.15;;;;;;;10.23;42.72;103764.19;4997142;28;20644;-72
2022/01/17 08:53:26;;;;;;;21.77;11.40;;;;;;;10.14;43.00;103762.00;4994757;28;20879;-73
2022/01/17 08:55:52;;;;;;;17.40;11.43;;;;;;;10.21;42.91;103760.00;4978091;28;20026;-71
2022/01/17 08:58:18;;;;;;;15.47;10.73;;;;;;;10.20;42.85;103766.50;4977595;28;20066;-71
2022/01/17 09:00:44;;;;;;;15.70;10.10;;;;;;;10.13;43.07;103752.16;4977830;28;20022;-71
2022/01/17 09:03:10;;;;;;;24.53;11.23;;;;;;;10.17;42.97;103759.63;4976965;28;20045;-70
2022/01/17 09:05:36;;;;;;;21.10;11.57;;;;;;;10.23;42.85;103766.06;4977812;28;20034;-71
2022/01/17 09:08:04;;;;;;;21.17;12.13;;;;;;;10.23;42.82;103768.81;4978466;28;20571;-71
2022/01/17 09:10:30;;;;;;;17.03;10.33;;;;;;;10.23;42.73;103777.00;4986131;28;20414;-72
2022/01/17 09:12:57;;;;;;;15.20;10.50;;;;;;;10.19;43.10;103786.69;4987581;28;20026;-70
2022/01/17 09:15:23;;;;;;;19.55;10.48;;;;;;;10.13;42.90;103774.84;4991657;28;20042;-71
2022/01/17 09:17:49;;;;;;;14.43;9.80;;;;;;;10.27;42.52;103772.72;4993847;28;20042;-70
2022/01/17 09:20:15;;;;;;;20.80;11.00;;;;;;;10.17;42.96;103786.13;4994574;28;20057;-70
2022/01/17 09:22:41;;;;;;;23.27;11.50;;;;;;;10.33;42.64;103773.69;4994578;28;20105;-70
2022/01/17 09:25:07;;;;;;;16.77;10.75;;;;;;;10.37;42.64;103789.38;4996305;28;20180;-70
2022/01/17 09:27:34;;;;;;;20.50;11.18;;;;;;;10.41;42.35;103770.59;4995792;28;20117;-71
2022/01/17 09:30:00;;;;;;;18.65;11.50;;;;;;;10.38;42.55;103763.69;4996781;28;20025;-71
2022/01/17 09:32:25;;;;;;;18.58;10.82;;;;;;;10.44;42.48;103770.97;4998287;28;20381;-71
2022/01/17 09:34:51;;;;;;;16.48;10.75;;;;;;;10.46;42.43;103781.66;4997683;28;20042;-71
2022/01/17 09:37:17;;;;;;;22.20;10.18;;;;;;;10.53;42.29;103783.19;4997527;28;20044;-70
2022/01/17 09:39:43;;;;;;;16.60;11.80;;;;;;;10.59;42.21;103769.66;4997392;28;20533;-76
2022/01/17 09:42:09;;;;;;;22.83;11.07;;;;;;;10.63;42.32;103773.53;4998022;28;20033;-70
2022/01/17 09:44:36;;;;;;;86.40;55.53;;;;;;;10.49;42.55;103789.34;4997044;28;20034;-70
2022/01/17 09:47:10;;;;;;;46.03;30.52;;;;;;;10.64;42.46;103802.56;4993118;28;20030;-78
2022/01/17 09:49:41;;;;;;;48.55;41.78;;;;;;;10.72;42.27;103792.06;4993949;28;20026;-73
2022/01/17 09:54:59;;;;;;;52.20;42.28;;;;;;;10.83;42.26;103793.16;4974936;28;20400;-71
2022/01/17 09:57:27;;;;;;;;;;;;;;;10.77;42.60;103789.47;4974954;28;20026;-73
2022/01/17 09:59:53;;;;;;;53.07;39.90;;;;;;;10.98;42.24;103790.75;4974854;28;20018;-78
2022/01/17 10:02:19;;;;;;;19.80;13.55;;;;;;;10.89;42.63;103791.38;4977315;28;20026;-78
2022/01/17 10:04:45;;;;;;;22.23;11.23;;;;;;;11.05;42.47;103804.28;4974547;28;20370;-71
2022/01/17 10:07:10;;;;;;;20.95;17.25;;;;;;;11.14;42.45;103799.25;4974669;28;20033;-77
2022/01/17 10:09:39;;;;;;;23.15;19.17;;;;;;;11.18;42.35;103798.50;4979702;28;20534;-78
2022/01/17 10:12:06;;;;;;;22.60;16.35;;;;;;;11.31;42.30;103800.16;4986054;28;20027;-71
2022/01/17 10:14:37;;;;;;;17.33;12.32;;;;;;;11.30;42.46;103807.53;4974923;28;20026;-77
2022/01/17 10:17:20;;;;;;;22.38;13.23;;;;;;;11.32;42.48;103799.06;4974207;28;20071;-70
2022/01/17 10:19:59;;;;;;;22.33;13.95;;;;;;;11.44;42.40;103796.31;4991404;28;20029;-69
2022/01/17 10:22:32;;;;;;;22.75;11.80;;;;;;;11.58;42.14;103798.50;4992803;28;20023;-70
2022/01/17 10:26:02;;;;;;;27.42;21.08;;;;;;;11.60;42.40;103799.06;4993432;28;20030;-77
2022/01/17 10:29:01;;;;;;;21.95;11.68;;;;;;;11.80;42.04;103784.97;4989136;28;20042;-74
2022/01/17 10:36:57;;;;;;;21.75;11.65;;;;;;;12.04;42.10;103796.59;4993385;28;20452;-71
2022/01/17 10:39:23;;;;;;;16.02;11.07;;;;;;;12.17;41.83;103807.25;4993170;28;20031;-70
2022/01/17 10:41:49;;;;;;;21.40;10.15;;;;;;;12.21;42.07;103819.34;4993353;28;20034;-74
2022/01/17 10:44:37;;;;;;;28.17;21.42;;;;;;;12.26;41.96;103828.75;4993341;28;20071;-71
2022/01/17 10:47:28;;;;;;;53.20;47.30;;;;;;;12.25;42.26;103825.19;4993099;28;20037;-71
2022/01/17 10:50:00;;;;;;;20.23;13.27;;;;;;;12.39;41.96;103820.16;4985518;28;20031;-71
2022/01/17 10:52:34;;;;;;;23.60;13.48;;;;;;;12.47;41.94;103828.84;4992532;28;20018;-70
2022/01/17 10:55:16;;;;;;;16.08;10.93;;;;;;;12.56;41.89;103825.66;4993062;28;20022;-72
2022/01/17 10:57:48;;;;;;;13.98;10.23;;;;;;;12.67;41.76;103816.47;4992616;28;20026;-70
2022/01/17 11:00:18;;;;;;;15.00;10.63;;;;;;;12.71;41.87;103815.75;4993103;28;20034;-70
2022/01/17 11:02:49;;;;;;;15.38;10.77;;;;;;;12.75;41.82;103810.56;4991472;28;20413;-70
2022/01/17 11:05:14;;;;;;;19.10;11.07;;;;;;;12.78;41.96;103829.28;4993369;28;20412;-70
2022/01/17 11:07:43;;;;;;;19.65;11.68;;;;;;;12.89;41.69;103814.59;4992994;28;20025;-70
2022/01/17 11:10:40;;;;;;;22.65;11.90;;;;;;;12.89;41.92;103813.78;4992921;28;20030;-70
2022/01/17 11:13:11;;;;;;;17.05;10.52;;;;;;;13.10;41.64;103810.22;4989034;28;20061;-74
2022/01/17 11:15:39;;;;;;;15.77;10.65;;;;;;;13.17;41.67;103826.50;4993278;28;20034;-75
2022/01/17 11:18:22;;;;;;;16.20;10.55;;;;;;;13.27;41.61;103808.25;4991329;28;20038;-70
2022/01/17 11:20:50;;;;;;;37.85;25.20;;;;;;;13.30;41.81;103820.66;4978786;28;20039;-74
2022/01/17 11:23:17;;;;;;;67.45;49.13;;;;;;;13.36;41.74;103818.78;4991863;28;20022;-70
2022/01/17 11:25:45;;;;;;;22.48;10.05;;;;;;;13.38;41.60;103817.44;4989476;28;20026;-71
2022/01/17 11:28:14;;;;;;;34.97;26.23;;;;;;;13.52;41.47;103804.94;4992012;28;20029;-77
2022/01/17 11:30:40;;;;;;;49.15;40.30;;;;;;;13.58;41.50;103800.34;4981294;28;20052;-70
2022/01/17 11:33:08;;;;;;;25.40;15.27;;;;;;;13.69;41.38;103788.38;4991805;28;20038;-72
2022/01/17 11:35:41;;;;;;;23.40;17.90;;;;;;;13.77;41.47;103803.56;4991730;28;20049;-70
2022/01/17 11:38:11;;;;;;;21.30;10.82;;;;;;;13.82;41.47;103784.34;4989792;28;20098;-71
2022/01/17 11:40:39;;;;;;;18.67;11.88;;;;;;;13.77;41.63;103793.41;4990444;28;20034;-71
2022/01/17 11:43:33;;;;;;;13.60;10.00;;;;;;;13.82;41.49;103785.19;4991669;28;20030;-70
2022/01/17 11:46:20;;;;;;;14.10;9.60;;;;;;;13.92;41.75;103789.13;4991257;28;20034;-71
2022/01/17 11:48:57;;;;;;;13.48;8.85;;;;;;;14.05;41.42;103783.19;4989137;28;20053;-71
2022/01/17 11:51:33;;;;;;;19.02;8.85;;;;;;;14.19;41.24;103798.13;4987723;28;20383;-71
2022/01/17 11:54:09;;;;;;;20.58;9.05;;;;;;;14.16;41.13;103793.19;4991618;28;20157;-70
2022/01/17 11:56:38;;;;;;;20.15;9.73;;;;;;;14.27;41.27;103803.16;4991789;28;20018;-71
2022/01/17 11:59:22;;;;;;;17.40;8.60;;;;;;;14.33;41.34;103804.03;4989268;28;20500;-71
2022/01/17 12:02:25;;;;;;;17.77;9.35;;;;;;;14.51;41.23;103805.53;4989850;28;20019;-71
2022/01/17 12:05:03;;;;;;;18.92;8.60;;;;;;;14.55;41.15;103801.19;4987587;28;20492;-72
2022/01/17 12:07:37;;;;;;;18.48;10.88;;;;;;;14.57;41.13;103794.31;4989787;28;20030;-75
2022/01/17 12:10:09;;;;;;;12.18;8.15;;;;;;;14.72;40.96;103793.56;4989052;28;20026;-76
2022/01/17 12:12:34;;;;;;;14.55;7.45;;;;;;;14.69;41.06;103788.59;4981978;28;20030;-71
2022/01/17 12:15:05;;;;;;;14.38;6.90;;;;;;;14.68;41.06;103785.03;4988936;28;20072;-72
2022/01/17 12:17:31;;;;;;;13.80;7.30;;;;;;;14.75;41.35;103773.78;4986357;28;20997;-71
2022/01/17 12:20:03;;;;;;;11.93;7.45;;;;;;;14.74;41.03;103768.56;4988663;28;20536;-68
2022/01/17 12:22:30;;;;;;;19.73;8.15;;;;;;;14.82;41.15;103776.28;4987730;28;20034;-67
2022/01/17 12:24:56;;;;;;;18.95;7.35;;;;;;;14.86;41.47;103780.97;4994749;28;20029;-73
2022/01/17 12:27:26;;;;;;;14.52;7.88;;;;;;;14.94;40.94;103785.16;4994716;28;20033;-68
2022/01/17 12:29:52;;;;;;;;;;;;;;;14.93;41.19;103780.75;4995075;28;20477;-68
2022/01/17 12:32:28;;;;;;;16.90;8.88;;;;;;;15.14;40.82;103792.66;4983890;28;19922;-68
2022/01/17 12:35:05;;;;;;;15.45;12.63;;;;;;;15.22;40.89;103794.91;4994420;28;20109;-67
2022/01/17 12:38:06;;;;;;;16.40;9.27;;;;;;;15.21;40.60;103790.50;4992959;28;20464;-68
2022/01/17 12:40:41;;;;;;;13.10;6.20;;;;;;;15.30;40.79;103780.59;4993233;28;20053;-68
2022/01/17 12:43:13;;;;;;;11.68;6.15;;;;;;;15.36;40.75;103779.50;4992573;28;20010;-68
2022/01/17 12:45:48;;;;;;;15.32;6.55;;;;;;;15.49;40.61;103756.09;4994599;28;20097;-68
2022/01/17 12:48:19;;;;;;;13.15;7.32;;;;;;;15.50;40.23;103755.84;4994426;28;20361;-67
2022/01/17 12:50:46;;;;;;;11.48;6.78;;;;;;;15.60;40.35;103744.00;4992032;28;20026;-67
2022/01/17 12:53:14;;;;;;;10.55;7.13;;;;;;;15.60;40.66;103726.63;4994403;28;20034;-67
2022/01/17 12:55:44;;;;;;;15.07;7.03;;;;;;;15.66;40.18;103722.81;4994009;28;20030;-67
2022/01/17 12:58:36;;;;;;;16.25;6.47;;;;;;;15.78;40.00;103712.31;4984380;28;20030;-67
2022/01/17 13:01:04;;;;;;;9.98;5.13;;;;;;;15.80;39.72;103723.94;4985468;28;20026;-67
2022/01/17 13:03:35;;;;;;;11.80;6.15;;;;;;;15.81;39.99;103725.56;4984433;28;20030;-67
2022/01/17 13:06:03;;;;;;;13.63;5.57;;;;;;;16.29;38.67;103734.34;4994067;28;20026;-67
2022/01/17 13:08:29;;;;;;;11.05;5.57;;;;;;;16.29;38.77;103762.75;4984261;28;20029;-67
2022/01/17 13:10:55;;;;;;;11.70;5.10;;;;;;;16.57;38.29;103764.06;4984975;28;20031;-68
2022/01/17 13:13:22;;;;;;;14.82;5.03;;;;;;;16.50;38.37;103743.41;4987075;28;20038;-68
2022/01/17 13:16:11;;;;;;;10.15;5.53;;;;;;;16.59;38.20;103738.94;4999252;28;20038;-68
2022/01/17 13:18:37;;;;;;;10.00;5.10;;;;;;;16.70;38.02;103739.75;4999981;28;20034;-68
2022/01/17 13:21:04;;;;;;;12.18;5.47;;;;;;;16.47;38.41;103750.28;5002405;28;20029;-68
2022/01/17 13:23:47;;;;;;;10.05;4.00;;;;;;;16.19;39.04;103737.13;5003521;28;20045;-68
2022/01/17 13:26:15;;;;;;;12.38;4.93;;;;;;;16.34;39.13;103720.53;5001733;28;20022;-67
2022/01/17 13:28:54;;;;;;;10.27;5.78;;;;;;;16.24;38.92;103715.03;5002654;28;20674;-83
2022/01/17 13:31:28;;;;;;;12.05;5.88;;;;;;;16.42;38.90;103702.56;5002228;28;20071;-78
2022/01/17 13:33:54;;;;;;;18.73;7.47;;;;;;;16.41;38.92;103704.50;4988696;28;20064;-71
2022/01/17 13:36:24;;;;;;;16.63;7.63;;;;;;;16.40;38.94;103707.53;5002254;28;20396;-69
2022/01/17 13:39:06;;;;;;;17.48;7.50;;;;;;;16.46;38.87;103723.78;5003583;28;20558;-68
2022/01/17 13:41:33;;;;;;;17.05;7.53;;;;;;;16.48;39.02;103718.00;5004318;28;20491;-77
2022/01/17 13:43:59;;;;;;;17.20;12.57;;;;;;;16.46;38.83;103721.03;5001739;28;20057;-68
2022/01/17 13:46:25;;;;;;;14.10;7.78;;;;;;;16.53;38.63;103734.53;4999969;28;20050;-84
2022/01/17 13:48:50;;;;;;;18.25;7.80;;;;;;;16.48;38.84;103724.34;4981643;28;20034;-70
2022/01/17 13:51:22;;;;;;;15.73;7.28;;;;;;;16.46;38.63;103707.22;4983967;28;20044;-77
2022/01/17 13:53:48;;;;;;;17.33;7.22;;;;;;;16.48;38.71;103713.31;4983802;28;20054;-69
2022/01/17 13:56:13;;;;;;;17.98;7.40;;;;;;;16.49;38.62;103705.88;4991569;28;20022;-68
2022/01/17 13:58:39;;;;;;;11.13;7.10;;;;;;;16.44;38.81;103692.06;4983565;28;20031;-69
2022/01/17 14:01:10;;;;;;;18.10;6.95;;;;;;;16.42;38.66;103716.38;4983094;28;20022;-69
2022/01/17 14:03:41;;;;;;;13.20;8.45;;;;;;;16.43;38.61;103729.88;4992728;28;20033;-68
2022/01/17 14:06:15;;;;;;;21.98;10.23;;;;;;;16.43;38.78;103734.59;4992927;28;20500;-69
2022/01/17 14:09:02;;;;;;;12.65;5.95;;;;;;;16.33;38.68;103741.78;4990763;28;20543;-68
2022/01/17 14:11:31;;;;;;;18.42;6.70;;;;;;;16.43;38.56;103760.25;4991543;28;20026;-68
2022/01/17 14:14:00;;;;;;;16.25;6.47;;;;;;;16.42;38.71;103721.88;4989882;28;20057;-69
2022/01/17 14:16:31;;;;;;;13.23;6.20;;;;;;;16.45;38.63;103690.97;4992769;28;20034;-67
2022/01/17 14:19:02;;;;;;;14.60;6.13;;;;;;;16.36;38.64;103661.19;4989890;28;20026;-67
2022/01/17 14:21:29;;;;;;;13.85;5.97;;;;;;;16.39;38.70;103662.53;4992734;28;20089;-67
2022/01/17 14:24:20;;;;;;;15.25;6.63;;;;;;;16.16;39.22;103646.63;4981515;28;20058;-67
2022/01/17 14:27:11;;;;;;;14.65;6.38;;;;;;;16.32;38.77;103634.44;4991064;28;20018;-67
2022/01/17 14:29:41;;;;;;;14.32;5.60;;;;;;;16.28;39.10;103641.63;4992408;28;20026;-68
2022/01/17 14:32:08;;;;;;;;;;;;;;;16.32;38.85;103634.44;4982876;28;20117;-77
2022/01/17 14:34:35;;;;;;;15.25;6.25;;;;;;;16.40;38.63;103649.56;4983384;28;20288;-67
2022/01/17 14:37:19;;;;;;;16.35;6.22;;;;;;;16.36;38.72;103643.81;4981090;28;20062;-80
2022/01/17 14:40:01;;;;;;;13.88;5.75;;;;;;;16.33;39.00;103644.38;4990548;28;20508;-67
2022/01/17 14:42:40;;;;;;;15.25;5.53;;;;;;;16.19;38.74;103651.59;4990802;28;20018;-68
2022/01/17 14:45:12;;;;;;;13.55;5.70;;;;;;;16.24;39.07;103666.19;4990872;28;20057;-78
2022/01/17 14:47:41;;;;;;;14.20;5.20;;;;;;;16.38;38.88;103652.63;4989838;28;20034;-68
2022/01/17 14:50:09;;;;;;;15.85;5.88;;;;;;;16.36;38.91;103652.91;4982092;28;20030;-81
2022/01/17 14:52:39;;;;;;;14.98;5.88;;;;;;;16.41;38.60;103648.50;4984064;28;20102;-69
2022/01/17 14:55:36;;;;;;;13.40;5.97;;;;;;;16.36;38.92;103641.03;4992198;28;20077;-67
2022/01/17 15:00:54;;;;;;;18.38;5.80;;;;;;;16.34;39.03;103637.75;4990602;28;20026;-70
2022/01/17 15:03:27;;;;;;;14.20;6.45;;;;;;;16.37;39.10;103637.19;4989731;28;20384;-67
2022/01/17 15:05:53;;;;;;;13.73;5.35;;;;;;;16.34;39.18;103648.78;4984113;28;20428;-69
2022/01/17 15:08:18;;;;;;;17.85;6.43;;;;;;;16.35;39.15;103637.47;4980098;28;20019;-69
2022/01/17 15:10:45;;;;;;;14.27;6.70;;;;;;;16.42;38.84;103639.94;4991992;28;20015;-69
2022/01/17 15:13:11;;;;;;;14.85;5.70;;;;;;;16.36;39.14;103632.78;4993589;28;20010;-70
2022/01/17 15:15:39;;;;;;;16.58;5.90;;;;;;;16.35;39.00;103640.22;4996133;28;20053;-70
2022/01/17 15:18:08;;;;;;;16.08;5.60;;;;;;;16.32;39.29;103642.72;4976767;28;20568;-70
2022/01/17 15:20:34;;;;;;;13.93;4.97;;;;;;;16.29;39.04;103635.00;4976602;28;20085;-70
2022/01/17 15:23:03;;;;;;;14.93;6.70;;;;;;;16.25;39.27;103639.44;4976394;28;20085;-71
2022/01/17 15:25:29;;;;;;;13.90;5.70;;;;;;;16.16;39.52;103646.63;4977708;28;20026;-70
2022/01/17 15:27:55;;;;;;;21.55;5.68;;;;;;;16.24;39.31;103638.59;4977095;28;20018;-70
2022/01/17 15:30:21;;;;;;;13.57;5.93;;;;;;;16.17;39.30;103643.63;4989285;28;20473;-69
2022/01/17 15:32:49;;;;;;;9.90;5.00;;;;;;;16.16;39.48;103638.34;4992653;28;20034;-70
2022/01/17 15:35:16;;;;;;;16.42;5.70;;;;;;;16.10;39.35;103643.09;4992773;28;20042;-69
2022/01/17 15:37:42;;;;;;;15.52;5.82;;;;;;;16.06;39.42;103644.72;4992752;28;20022;-68
2022/01/17 15:40:10;;;;;;;10.48;4.45;;;;;;;16.01;39.48;103651.06;4992842;28;20088;-70
2022/01/17 15:42:35;;;;;;;12.45;4.03;;;;;;;15.97;39.52;103652.75;4992774;28;20022;-71
2022/01/17 15:45:01;;;;;;;14.23;4.85;;;;;;;15.85;39.82;103641.19;4991067;28;20030;-69
2022/01/17 15:47:27;;;;;;;16.25;6.50;;;;;;;15.80;39.87;103638.47;4992394;28;20030;-69
2022/01/17 15:49:52;;;;;;;11.07;5.60;;;;;;;15.85;39.70;103630.16;4995349;28;20026;-69
2022/01/17 15:52:18;;;;;;;13.13;5.22;;;;;;;15.77;39.82;103630.72;4994845;28;20093;-69
2022/01/17 15:54:44;;;;;;;12.32;5.70;;;;;;;15.70;39.94;103630.19;4996288;28;20428;-69
2022/01/17 15:57:11;;;;;;;14.32;5.28;;;;;;;15.71;39.83;103637.34;4985217;28;20074;-69
2022/01/17 15:59:39;;;;;;;19.23;6.20;;;;;;;15.57;40.25;103639.84;4994391;28;20026;-70
2022/01/17 16:02:06;;;;;;;12.23;4.40;;;;;;;15.46;40.46;103633.47;4994719;28;20417;-69
2022/01/17 16:04:32;;;;;;;12.35;5.00;;;;;;;15.53;40.13;103624.94;4994248;28;20038;-69